createdAt,value
2022-09-15T00:01:01.008Z,7.07
2022-09-15T00:05:02.885Z,7.50
2022-09-15T00:09:04.907Z,7.13
2022-09-15T00:13:06.500Z,5.33
2022-09-15T00:17:08.186Z,6.50
2022-09-15T00:21:16.472Z,6.63
2022-09-15T00:25:18.416Z,8.10
2022-09-15T00:29:19.998Z,6.38
2022-09-15T00:33:22.828Z,6.72
2022-09-15T00:41:26.587Z,5.50
2022-09-15T00:45:28.353Z,5.30
2022-09-15T00:49:33.753Z,4.57
2022-09-15T00:53:35.760Z,4.35
2022-09-15T00:57:42.704Z,4.17
2022-09-15T01:01:47.231Z,4.65
2022-09-15T01:05:54.601Z,4.03
2022-09-15T01:09:59.894Z,4.43
2022-09-15T01:14:02.121Z,5.25
2022-09-15T01:18:19.335Z,6.00
2022-09-15T01:22:55.463Z,5.25
2022-09-15T01:27:24.085Z,5.78
2022-09-15T01:31:36.643Z,5.40
2022-09-15T01:36:11.318Z,6.18
2022-09-15T01:40:15.586Z,6.72
2022-09-15T01:44:24.899Z,7.22
2022-09-15T01:48:28.304Z,8.00
2022-09-15T01:52:31.163Z,8.27
2022-09-15T02:00:41.713Z,8.88
2022-09-15T02:04:55.398Z,9.02
2022-09-15T02:09:02.660Z,10.20
2022-09-15T02:13:18.008Z,10.30
2022-09-15T02:17:21.334Z,12.40
2022-09-15T02:21:36.395Z,15.52
2022-09-15T02:25:45.327Z,14.80
2022-09-15T02:29:48.809Z,16.27
2022-09-15T02:33:59.155Z,17.55
2022-09-15T02:38:02.546Z,14.00
2022-09-15T02:42:04.435Z,16.65
2022-09-15T02:46:07.012Z,17.23
2022-09-15T02:50:11.854Z,15.63
2022-09-15T02:54:13.840Z,13.13
2022-09-15T02:58:17.150Z,14.03
2022-09-15T03:02:21.535Z,16.83
2022-09-15T03:06:26.464Z,12.00
2022-09-15T03:10:29.169Z,9.30
2022-09-15T03:14:32.641Z,8.75
2022-09-15T03:18:34.571Z,8.35
2022-09-15T03:22:36.184Z,6.07
2022-09-15T03:26:37.838Z,5.80
2022-09-15T03:30:39.408Z,4.00
2022-09-15T03:34:41.546Z,3.08
2022-09-15T03:38:43.087Z,3.70
2022-09-15T03:42:44.636Z,2.70
2022-09-15T03:46:46.355Z,2.92
2022-09-15T03:50:48.498Z,1.65
2022-09-15T03:54:50.111Z,1.40
2022-09-15T03:58:52.251Z,1.50
2022-09-15T04:02:56.635Z,1.10
2022-09-15T04:11:04.465Z,1.02
2022-09-15T04:15:07.623Z,1.30
2022-09-15T04:19:09.307Z,1.20
2022-09-15T04:23:11.954Z,1.48
2022-09-15T04:27:14.076Z,1.67
2022-09-15T04:31:16.918Z,3.27
2022-09-15T04:39:20.289Z,4.30
2022-09-15T04:43:22.381Z,5.30
2022-09-15T04:47:24.112Z,5.30
2022-09-15T04:51:27.281Z,6.03
2022-09-15T04:55:32.580Z,6.28
2022-09-15T04:59:34.448Z,6.15
2022-09-15T05:03:37.741Z,7.50
2022-09-15T05:07:39.351Z,11.38
2022-09-15T05:11:41.153Z,8.88
2022-09-15T05:15:42.808Z,10.05
2022-09-15T05:19:44.385Z,10.48
2022-09-15T05:23:46.682Z,11.48
2022-09-15T05:27:48.324Z,12.75
2022-09-15T05:31:50.039Z,12.10
2022-09-15T05:35:59.964Z,11.77
2022-09-15T05:40:05.172Z,10.30
2022-09-15T05:44:11.614Z,10.55
2022-09-15T05:48:13.218Z,10.65
2022-09-15T05:52:14.764Z,10.68
2022-09-15T05:56:17.529Z,11.13
2022-09-15T06:00:19.172Z,11.38
2022-09-15T06:04:20.795Z,11.52
2022-09-15T06:08:22.387Z,10.63
2022-09-15T06:12:24.144Z,10.75
2022-09-15T06:16:26.764Z,12.45
2022-09-15T06:20:28.382Z,12.10
2022-09-15T06:24:30.015Z,12.57
2022-09-15T06:28:31.623Z,12.15
2022-09-15T06:32:33.955Z,12.18
2022-09-15T06:36:36.884Z,12.05
2022-09-15T06:44:39.991Z,12.43
2022-09-15T06:48:45.255Z,12.38
2022-09-15T06:52:49.616Z,13.27
2022-09-15T06:56:51.196Z,13.73
2022-09-15T07:00:52.853Z,12.32
2022-09-15T07:04:54.435Z,11.77
2022-09-15T07:08:56.738Z,12.18
2022-09-15T07:12:59.076Z,12.20
2022-09-15T07:17:00.605Z,11.68
2022-09-15T07:21:07.605Z,11.70
2022-09-15T07:25:09.380Z,11.25
2022-09-15T07:29:11.050Z,10.98
2022-09-15T07:33:13.518Z,12.82
2022-09-15T07:37:16.258Z,9.55
2022-09-15T07:41:21.187Z,9.75
2022-09-15T07:45:23.037Z,8.45
2022-09-15T07:49:24.595Z,8.02
2022-09-15T07:53:29.952Z,7.47
2022-09-15T07:57:31.545Z,7.75
2022-09-15T08:01:33.339Z,6.13
2022-09-15T08:05:39.397Z,5.55
2022-09-15T08:09:42.874Z,4.40
2022-09-15T08:13:45.113Z,5.00
2022-09-15T08:17:46.745Z,4.40
2022-09-15T08:21:48.279Z,5.10
2022-09-15T08:25:51.656Z,3.63
2022-09-15T08:29:53.415Z,3.15
2022-09-15T08:33:55.959Z,3.58
2022-09-15T08:37:57.691Z,3.17
2022-09-15T08:42:02.101Z,3.05
2022-09-15T08:46:06.870Z,3.13
2022-09-15T08:50:35.747Z,2.47
2022-09-15T08:54:38.701Z,2.97
2022-09-15T08:58:40.657Z,2.80
2022-09-15T09:03:05.374Z,3.33
2022-09-15T09:07:09.919Z,3.28
2022-09-15T09:11:23.369Z,2.65
2022-09-15T09:15:41.427Z,3.03
2022-09-15T09:20:14.083Z,3.58
2022-09-15T09:24:18.019Z,2.72
2022-09-15T09:28:42.341Z,3.30
2022-09-15T09:32:50.340Z,2.97
2022-09-15T09:36:58.736Z,2.90
2022-09-15T09:41:02.497Z,2.97
2022-09-15T09:45:05.957Z,2.88
2022-09-15T09:49:24.068Z,2.22
2022-09-15T09:53:36.470Z,2.92
2022-09-15T09:57:40.683Z,2.80
2022-09-15T10:02:05.246Z,3.05
2022-09-15T10:06:11.053Z,2.92
2022-09-15T10:10:32.322Z,3.38
2022-09-15T10:14:40.321Z,3.42
2022-09-15T10:18:41.940Z,2.75
2022-09-15T10:22:44.090Z,3.00
2022-09-15T10:26:46.007Z,3.08
2022-09-15T10:31:10.789Z,2.50
2022-09-15T10:35:15.115Z,2.85
2022-09-15T10:39:59.645Z,2.13
2022-09-15T10:44:28.951Z,2.50
2022-09-15T10:48:54.103Z,2.58
2022-09-15T10:53:11.394Z,3.20
2022-09-15T10:57:31.112Z,2.95
2022-09-15T11:01:59.093Z,3.67
2022-09-15T11:06:07.157Z,3.63
2022-09-15T11:10:37.385Z,3.83
2022-09-15T11:15:11.424Z,4.25
2022-09-15T11:19:22.700Z,3.70
2022-09-15T11:23:32.829Z,4.25
2022-09-15T11:27:41.151Z,5.05
2022-09-15T11:31:47.867Z,5.40
2022-09-15T11:36:15.759Z,5.88
2022-09-15T11:40:23.531Z,5.95
2022-09-15T11:44:31.443Z,6.20
2022-09-15T11:48:45.504Z,5.80
2022-09-15T11:52:57.756Z,6.60
2022-09-15T11:57:00.284Z,6.28
2022-09-15T12:01:14.408Z,7.57
2022-09-15T12:05:28.439Z,6.88
2022-09-15T12:09:30.937Z,7.90
2022-09-15T12:13:33.185Z,7.57
2022-09-15T12:17:44.696Z,7.57
2022-09-15T12:22:07.165Z,7.88
2022-09-15T12:26:14.724Z,7.20
2022-09-15T12:30:38.865Z,6.68
2022-09-15T12:34:40.456Z,6.68
2022-09-15T12:38:48.043Z,6.95
2022-09-15T12:42:49.924Z,6.57
2022-09-15T12:46:56.161Z,6.50
2022-09-15T12:51:12.374Z,5.10
2022-09-15T12:55:23.919Z,4.05
2022-09-15T12:59:35.784Z,4.38
2022-09-15T13:08:01.911Z,3.63
2022-09-15T13:12:05.723Z,3.50
2022-09-15T13:16:14.504Z,3.80
2022-09-15T13:20:26.109Z,4.35
2022-09-15T13:24:59.118Z,4.10
2022-09-15T13:29:06.412Z,4.15
2022-09-15T13:38:29.106Z,4.13
2022-09-15T13:42:42.324Z,3.60
2022-09-15T13:47:02.227Z,3.70
2022-09-15T13:51:29.887Z,3.50
2022-09-15T13:55:36.809Z,4.10
2022-09-15T13:59:38.433Z,3.17
2022-09-15T14:03:42.534Z,3.25
2022-09-15T14:07:59.171Z,3.28
2022-09-15T14:12:09.209Z,3.35
2022-09-15T14:16:25.452Z,3.40
2022-09-15T14:20:27.085Z,3.17
2022-09-15T14:24:31.095Z,3.30
2022-09-15T14:28:32.957Z,3.45
2022-09-15T14:32:39.965Z,3.30
2022-09-15T14:36:43.600Z,3.22
2022-09-15T14:40:52.276Z,3.45
2022-09-15T14:49:16.444Z,3.15
2022-09-15T14:53:23.144Z,3.72
2022-09-15T14:57:31.139Z,3.30
2022-09-15T15:01:38.121Z,3.80
2022-09-15T15:05:45.981Z,4.00
2022-09-15T15:09:56.796Z,3.70
2022-09-15T15:13:58.957Z,3.75
2022-09-15T15:18:00.871Z,3.38
2022-09-15T15:22:11.639Z,2.80
2022-09-15T15:26:34.328Z,3.70
2022-09-15T15:30:47.085Z,3.20
2022-09-15T15:34:51.582Z,3.40
2022-09-15T15:38:55.785Z,3.58
2022-09-15T15:43:04.192Z,2.90
2022-09-15T15:47:14.392Z,3.22
2022-09-15T15:51:18.135Z,3.60
2022-09-15T15:55:26.794Z,3.20
2022-09-15T15:59:28.403Z,3.08
2022-09-15T16:03:29.957Z,2.70
2022-09-15T16:07:33.425Z,2.92
2022-09-15T16:11:35.220Z,2.90
2022-09-15T16:15:44.137Z,3.20
2022-09-15T16:19:45.717Z,2.90
2022-09-15T16:23:47.412Z,2.60
2022-09-15T16:27:48.947Z,2.83
2022-09-15T16:31:50.636Z,2.53
2022-09-15T16:36:03.806Z,2.80
2022-09-15T16:40:06.125Z,2.42
2022-09-15T16:44:17.629Z,2.95
2022-09-15T16:48:19.580Z,2.45
2022-09-15T16:52:21.172Z,2.27
2022-09-15T16:56:27.131Z,2.70
2022-09-15T17:00:30.555Z,2.17
2022-09-15T17:04:34.157Z,2.60
2022-09-15T17:08:35.733Z,2.40
2022-09-15T17:12:38.337Z,2.75
2022-09-15T17:16:41.138Z,2.38
2022-09-15T17:24:44.945Z,2.85
2022-09-15T17:28:47.169Z,3.33
2022-09-15T17:32:49.576Z,3.20
2022-09-15T17:36:51.218Z,2.63
2022-09-15T17:40:55.337Z,3.00
2022-09-15T17:44:57.044Z,3.40
2022-09-15T17:48:58.691Z,3.45
2022-09-15T17:53:00.746Z,3.38
2022-09-15T17:57:02.263Z,3.07
2022-09-15T18:01:05.135Z,2.78
2022-09-15T18:09:08.884Z,3.50
2022-09-15T18:13:15.738Z,3.50
2022-09-15T18:17:19.167Z,3.72
2022-09-15T18:21:28.686Z,3.78
2022-09-15T18:25:40.140Z,3.85
2022-09-15T18:29:43.522Z,3.80
2022-09-15T18:33:45.172Z,4.00
2022-09-15T18:37:48.813Z,4.63
2022-09-15T18:41:50.630Z,3.97
2022-09-15T18:45:55.101Z,4.30
2022-09-15T18:49:58.786Z,4.53
2022-09-15T18:54:01.364Z,3.92
2022-09-15T18:58:04.492Z,4.30
2022-09-15T19:02:11.871Z,4.10
2022-09-15T19:06:15.563Z,4.55
2022-09-15T19:10:19.216Z,3.55
2022-09-15T19:14:20.954Z,4.05
2022-09-15T19:18:22.889Z,3.88
2022-09-15T19:22:24.581Z,3.55
2022-09-15T19:26:28.910Z,3.15
2022-09-15T19:30:30.473Z,3.20
2022-09-15T19:34:32.320Z,3.83
2022-09-15T19:38:35.759Z,3.30
2022-09-15T19:42:38.999Z,3.25
2022-09-15T19:46:40.607Z,3.60
2022-09-15T19:50:42.205Z,3.60
2022-09-15T19:54:43.997Z,3.10
2022-09-15T19:58:46.519Z,3.35
2022-09-15T20:02:48.582Z,2.90
2022-09-15T20:06:50.178Z,2.70
2022-09-15T20:10:51.788Z,3.20
2022-09-15T20:14:53.633Z,3.08
2022-09-15T20:18:56.538Z,3.13
2022-09-15T20:27:00.209Z,2.42
2022-09-15T20:31:09.312Z,3.53
2022-09-15T20:35:10.900Z,2.70
2022-09-15T20:39:15.114Z,2.50
2022-09-15T20:43:21.104Z,2.75
2022-09-15T20:47:22.776Z,2.67
2022-09-15T20:51:33.612Z,2.22
2022-09-15T20:55:35.473Z,2.85
2022-09-15T20:59:38.504Z,2.58
2022-09-15T21:03:41.622Z,3.13
2022-09-15T21:07:43.192Z,3.00
2022-09-15T21:11:45.116Z,2.55
2022-09-15T21:15:58.462Z,1.92
2022-09-15T21:20:00.010Z,2.30
2022-09-15T21:24:04.577Z,2.33
2022-09-15T21:28:06.472Z,2.47
2022-09-15T21:32:08.123Z,2.63
2022-09-15T21:36:15.547Z,2.20
2022-09-15T21:40:18.667Z,3.05
2022-09-15T21:44:20.449Z,2.47
2022-09-15T21:48:22.370Z,2.72
2022-09-15T21:52:25.080Z,2.90
2022-09-15T21:56:28.731Z,2.15
2022-09-15T22:00:30.274Z,2.28
2022-09-15T22:04:32.037Z,2.55
2022-09-15T22:08:33.597Z,2.50
2022-09-15T22:12:35.143Z,2.22
2022-09-15T22:16:38.895Z,2.30
2022-09-15T22:20:40.770Z,2.70
2022-09-15T22:24:42.535Z,3.03
2022-09-15T22:28:44.600Z,2.30
2022-09-15T22:32:46.364Z,2.13
2022-09-15T22:36:48.093Z,2.83
2022-09-15T22:40:49.790Z,2.50
2022-09-15T22:44:51.408Z,2.65
2022-09-15T22:48:54.482Z,2.85
2022-09-15T22:56:59.248Z,2.63
2022-09-15T23:01:09.970Z,3.22
2022-09-15T23:05:11.537Z,2.83
2022-09-15T23:09:13.108Z,2.58
2022-09-15T23:13:14.776Z,2.65
2022-09-15T23:17:16.341Z,2.97
2022-09-15T23:21:18.934Z,2.88
2022-09-15T23:25:20.509Z,2.90
2022-09-15T23:29:24.870Z,2.95
2022-09-15T23:33:28.386Z,3.92
2022-09-15T23:37:29.985Z,2.50
2022-09-15T23:41:31.652Z,2.40
2022-09-15T23:45:33.180Z,2.25
2022-09-15T23:49:34.826Z,2.40
2022-09-15T23:53:36.429Z,2.42
2022-09-15T23:57:38.087Z,2.33
